sensor_id;sensor_type;location;lat;lon;timestamp;P1;P2;P0
76043;PMS7003;64740;34.694;33.088;2023-10-31T00:00:41;13.6;11.3;6.9
76043;PMS7003;64740;34.694;33.088;2023-10-31T00:06:07;13.7;11.3;7
76043;PMS7003;64740;34.694;33.088;2023-10-31T00:10:41;11.8;10.1;5.7
76043;PMS7003;64740;34.694;33.088;2023-10-31T00:15:35;12.7;11;6.8
76043;PMS7003;64740;34.694;33.088;2023-10-31T00:20:33;13.6;11.6;6.6
76043;PMS7003;64740;34.694;33.088;2023-10-31T00:25:51;14.9;11.3;6.8
76043;PMS7003;64740;34.694;33.088;2023-10-31T00:30:51;13.9;11.6;6.6
76043;PMS7003;64740;34.694;33.088;2023-10-31T00:35:51;12.3;10.1;6.4
76043;PMS7003;64740;34.694;33.088;2023-10-31T00:40:51;12.4;11;6.6
76043;PMS7003;64740;34.694;33.088;2023-10-31T00:45:41;14.5;11.3;6.8
76043;PMS7003;64740;34.694;33.088;2023-10-31T00:50:39;12.1;10;6.4
76043;PMS7003;64740;34.694;33.088;2023-10-31T00:56:05;10.8;9.7;5.8
76043;PMS7003;64740;34.694;33.088;2023-10-31T01:00:39;13.1;11.3;6.7
76043;PMS7003;64740;34.694;33.088;2023-10-31T01:05:37;12.6;10.6;6.1
76043;PMS7003;64740;34.694;33.088;2023-10-31T01:10:35;11.9;10.5;5.6
76043;PMS7003;64740;34.694;33.088;2023-10-31T01:15:55;12.6;10.9;6.4
76043;PMS7003;64740;34.694;33.088;2023-10-31T01:21:07;13.5;10.2;6.2
76043;PMS7003;64740;34.694;33.088;2023-10-31T01:25:55;11.5;10.2;6.2
76043;PMS7003;64740;34.694;33.088;2023-10-31T01:30:51;14.8;11.2;6.7
76043;PMS7003;64740;34.694;33.088;2023-10-31T01:35:45;13.8;11.4;7
76043;PMS7003;64740;34.694;33.088;2023-10-31T01:40:39;12.8;11;6.9
76043;PMS7003;64740;34.694;33.088;2023-10-31T01:46:05;12.8;10.7;6.8
76043;PMS7003;64740;34.694;33.088;2023-10-31T01:50:35;13.2;10.9;6.4
76043;PMS7003;64740;34.694;33.088;2023-10-31T01:55:47;12;10.6;6.6
76043;PMS7003;64740;34.694;33.088;2023-10-31T02:00:35;12.2;10.7;6.5
76043;PMS7003;64740;34.694;33.088;2023-10-31T02:05:55;13.1;10.5;6.6
76043;PMS7003;64740;34.694;33.088;2023-10-31T02:11:05;13.2;11.3;6.9
76043;PMS7003;64740;34.694;33.088;2023-10-31T02:15:55;12.6;11.6;6.9
76043;PMS7003;64740;34.694;33.088;2023-10-31T02:20:53;11.6;9.2;5
76043;PMS7003;64740;34.694;33.088;2023-10-31T02:25:43;12.7;10.8;6.6
76043;PMS7003;64740;34.694;33.088;2023-10-31T02:30:41;13.4;9.8;5.7
76043;PMS7003;64740;34.694;33.088;2023-10-31T02:35:49;13.4;11;6.8
76043;PMS7003;64740;34.694;33.088;2023-10-31T02:40:35;12.3;10.6;6.6
76043;PMS7003;64740;34.694;33.088;2023-10-31T02:45:29;13.1;11.1;6.6
76043;PMS7003;64740;34.694;33.088;2023-10-31T02:50:41;12.5;10.4;6.1
76043;PMS7003;64740;34.694;33.088;2023-10-31T02:55:55;13.2;11.2;6.2
76043;PMS7003;64740;34.694;33.088;2023-10-31T03:01:07;13;10.5;6.4
76043;PMS7003;64740;34.694;33.088;2023-10-31T03:05:43;12.8;10.4;6.2
76043;PMS7003;64740;34.694;33.088;2023-10-31T03:10:51;12.7;11.1;6.5
76043;PMS7003;64740;34.694;33.088;2023-10-31T03:15:27;13.5;10.8;6.6
76043;PMS7003;64740;34.694;33.088;2023-10-31T03:20:35;12.3;10.1;6.2
76043;PMS7003;64740;34.694;33.088;2023-10-31T03:26:07;13.3;10.2;6.2
76043;PMS7003;64740;34.694;33.088;2023-10-31T03:30:47;12.4;10.6;6.5
76043;PMS7003;64740;34.694;33.088;2023-10-31T03:35:29;11.9;10.8;6.3
76043;PMS7003;64740;34.694;33.088;2023-10-31T03:40:35;12.7;10.6;6.5
76043;PMS7003;64740;34.694;33.088;2023-10-31T03:45:55;12.9;11;6.8
76043;PMS7003;64740;34.694;33.088;2023-10-31T03:50:59;12.7;10.2;6.2
76043;PMS7003;64740;34.694;33.088;2023-10-31T03:55:45;13.1;11;6.4
76043;PMS7003;64740;34.694;33.088;2023-10-31T04:00:47;13.4;11.1;6.8
76043;PMS7003;64740;34.694;33.088;2023-10-31T04:05:57;13.8;11.2;6.8
76043;PMS7003;64740;34.694;33.088;2023-10-31T04:10:29;14.2;11.5;6.8
76043;PMS7003;64740;34.694;33.088;2023-10-31T04:16:07;13.4;11.4;6.9
76043;PMS7003;64740;34.694;33.088;2023-10-31T04:20:57;13.8;11.9;7.1
76043;PMS7003;64740;34.694;33.088;2023-10-31T04:25:29;12.5;10.7;6.3
76043;PMS7003;64740;34.694;33.088;2023-10-31T04:30:39;15.1;12.1;7.6
76043;PMS7003;64740;34.694;33.088;2023-10-31T04:35:55;13.9;12.2;7.5
76043;PMS7003;64740;34.694;33.088;2023-10-31T04:41:05;12.2;10.3;6.2
76043;PMS7003;64740;34.694;33.088;2023-10-31T04:45:27;13.7;11.8;7.2
76043;PMS7003;64740;34.694;33.088;2023-10-31T04:50:29;14.7;12.2;7.4
76043;PMS7003;64740;34.694;33.088;2023-10-31T04:55:43;15;11.7;6.9
76043;PMS7003;64740;34.694;33.088;2023-10-31T05:00:39;14;11.6;6.6
76043;PMS7003;64740;34.694;33.088;2023-10-31T05:05:53;14;11.1;6.9
76043;PMS7003;64740;34.694;33.088;2023-10-31T05:10:45;13.8;11.7;6.8
76043;PMS7003;64740;34.694;33.088;2023-10-31T05:15:27;14.5;12.2;7.5
76043;PMS7003;64740;34.694;33.088;2023-10-31T05:20:35;13.7;11.6;7
76043;PMS7003;64740;34.694;33.088;2023-10-31T05:25:51;16;11.5;7.1
76043;PMS7003;64740;34.694;33.088;2023-10-31T05:31:03;14.6;12;6.3
76043;PMS7003;64740;34.694;33.088;2023-10-31T05:35:45;15.6;12.7;7.6
76043;PMS7003;64740;34.694;33.088;2023-10-31T05:40:51;16.1;12.4;7.4
76043;PMS7003;64740;34.694;33.088;2023-10-31T05:45:59;13.9;11;7
76043;PMS7003;64740;34.694;33.088;2023-10-31T05:50:39;14.9;12.6;6.9
76043;PMS7003;64740;34.694;33.088;2023-10-31T05:56:03;14.2;11.7;7.3
76043;PMS7003;64740;34.694;33.088;2023-10-31T06:00:29;14.3;11.3;6.5
76043;PMS7003;64740;34.694;33.088;2023-10-31T06:05:29;14;10.9;6.9
76043;PMS7003;64740;34.694;33.088;2023-10-31T06:10:37;16.1;12.5;7.8
76043;PMS7003;64740;34.694;33.088;2023-10-31T06:15:43;15.8;13;7.7
76043;PMS7003;64740;34.694;33.088;2023-10-31T06:21:05;13.8;11.8;7
76043;PMS7003;64740;34.694;33.088;2023-10-31T06:25:27;16;12.3;7.3
76043;PMS7003;64740;34.694;33.088;2023-10-31T06:31:05;14.8;12.8;7.2
76043;PMS7003;64740;34.694;33.088;2023-10-31T06:35:51;14.3;11.3;7.1
76043;PMS7003;64740;34.694;33.088;2023-10-31T06:40:39;14.9;12.3;7.7
76043;PMS7003;64740;34.694;33.088;2023-10-31T06:45:41;15.7;11.6;7.3
76043;PMS7003;64740;34.694;33.088;2023-10-31T06:50:35;15.5;12.3;7.3
76043;PMS7003;64740;34.694;33.088;2023-10-31T06:55:29;14.1;12.1;7.2
76043;PMS7003;64740;34.694;33.088;2023-10-31T07:01:05;15.5;12.9;7.7
76043;PMS7003;64740;34.694;33.088;2023-10-31T07:05:47;16.2;12.3;7.1
76043;PMS7003;64740;34.694;33.088;2023-10-31T07:11:05;14.7;12.2;7.2
76043;PMS7003;64740;34.694;33.088;2023-10-31T07:16:05;15.1;12.3;7
76043;PMS7003;64740;34.694;33.088;2023-10-31T07:20:31;15.4;12.4;7.4
76043;PMS7003;64740;34.694;33.088;2023-10-31T07:25:51;15.7;12.2;7.4
76043;PMS7003;64740;34.694;33.088;2023-10-31T07:30:47;12.2;9.6;5.2
76043;PMS7003;64740;34.694;33.088;2023-10-31T07:35:51;15.6;12.2;6.7
76043;PMS7003;64740;34.694;33.088;2023-10-31T07:40:29;14.9;11.7;6.8
76043;PMS7003;64740;34.694;33.088;2023-10-31T07:45:29;16.7;13;7.4
76043;PMS7003;64740;34.694;33.088;2023-10-31T07:51:05;16.1;13.3;8
76043;PMS7003;64740;34.694;33.088;2023-10-31T07:55:48;17.7;13.4;8
76043;PMS7003;64740;34.694;33.088;2023-10-31T08:01:05;16.8;14.1;8.7
76043;PMS7003;64740;34.694;33.088;2023-10-31T08:06:06;17.1;13.7;8.6
76043;PMS7003;64740;34.694;33.088;2023-10-31T08:10:51;18.6;14.4;8.8
76043;PMS7003;64740;34.694;33.088;2023-10-31T08:15:51;17.6;14.7;8.9
76043;PMS7003;64740;34.694;33.088;2023-10-31T08:20:39;19.2;15.2;9.2
76043;PMS7003;64740;34.694;33.088;2023-10-31T08:25:51;19.3;15.8;9.6
76043;PMS7003;64740;34.694;33.088;2023-10-31T08:30:35;19.2;14.9;9
76043;PMS7003;64740;34.694;33.088;2023-10-31T08:35:33;19.4;15.4;8.8
76043;PMS7003;64740;34.694;33.088;2023-10-31T08:41:05;21.3;16.7;10.5
76043;PMS7003;64740;34.694;33.088;2023-10-31T08:45:59;18.7;16.1;9.9
76043;PMS7003;64740;34.694;33.088;2023-10-31T08:51:05;24.5;19.3;11.5
76043;PMS7003;64740;34.694;33.088;2023-10-31T08:56:05;17.7;15.2;9.2
76043;PMS7003;64740;34.694;33.088;2023-10-31T09:00:47;18.8;15.3;9.4
76043;PMS7003;64740;34.694;33.088;2023-10-31T09:05:51;19.8;16.2;9.6
76043;PMS7003;64740;34.694;33.088;2023-10-31T09:10:39;19.3;15.7;9.6
76043;PMS7003;64740;34.694;33.088;2023-10-31T09:15:51;19.9;17;10
76043;PMS7003;64740;34.694;33.088;2023-10-31T09:20:41;20.1;15.6;10
76043;PMS7003;64740;34.694;33.088;2023-10-31T09:25:33;19.6;16.5;10.2
76043;PMS7003;64740;34.694;33.088;2023-10-31T09:31:05;19.7;16.1;9.4
76043;PMS7003;64740;34.694;33.088;2023-10-31T09:35:45;20.5;16.5;9.8
76043;PMS7003;64740;34.694;33.088;2023-10-31T09:41:03;18;15.1;9.1
76043;PMS7003;64740;34.694;33.088;2023-10-31T09:46:03;17.8;15.5;9.1
76043;PMS7003;64740;34.694;33.088;2023-10-31T09:50:49;18.6;15.4;9.6
76043;PMS7003;64740;34.694;33.088;2023-10-31T09:55:51;18.8;15.2;8.9
76043;PMS7003;64740;34.694;33.088;2023-10-31T10:00:29;16.6;14.7;9
76043;PMS7003;64740;34.694;33.088;2023-10-31T10:05:51;18.6;14.5;8.5
76043;PMS7003;64740;34.694;33.088;2023-10-31T10:10:29;18.3;15.4;9.2
76043;PMS7003;64740;34.694;33.088;2023-10-31T10:15:29;17.9;15.2;9.2
76043;PMS7003;64740;34.694;33.088;2023-10-31T10:20:56;17.8;15;8.9
76043;PMS7003;64740;34.694;33.088;2023-10-31T10:25:29;19.2;15.5;9.2
76043;PMS7003;64740;34.694;33.088;2023-10-31T10:31:03;18.8;15.3;9.1
76043;PMS7003;64740;34.694;33.088;2023-10-31T10:36:05;18.9;15.7;9.2
76043;PMS7003;64740;34.694;33.088;2023-10-31T10:40:51;20.1;16.6;10.2
76043;PMS7003;64740;34.694;33.088;2023-10-31T10:45:53;18.5;16.1;10
76043;PMS7003;64740;34.694;33.088;2023-10-31T10:50:29;19;15.6;8.9
76043;PMS7003;64740;34.694;33.088;2023-10-31T10:55:52;17.4;15.3;9.5
76043;PMS7003;64740;34.694;33.088;2023-10-31T11:00:29;17.3;15.4;9
76043;PMS7003;64740;34.694;33.088;2023-10-31T11:05:35;17;13.8;8.5
76043;PMS7003;64740;34.694;33.088;2023-10-31T11:10:59;17;14.5;8.9
76043;PMS7003;64740;34.694;33.088;2023-10-31T11:15:47;17.3;14.8;8.7
76043;PMS7003;64740;34.694;33.088;2023-10-31T11:21:05;17.4;14.7;9.2
76043;PMS7003;64740;34.694;33.088;2023-10-31T11:25:35;18.9;15.6;9.2
76043;PMS7003;64740;34.694;33.088;2023-10-31T11:31:03;18;14.5;9.1
76043;PMS7003;64740;34.694;33.088;2023-10-31T11:36:05;16.4;13.6;8.5
76043;PMS7003;64740;34.694;33.088;2023-10-31T11:40:27;17.2;14.2;8.6
76043;PMS7003;64740;34.694;33.088;2023-10-31T11:45:36;17.1;14.1;8.6
76043;PMS7003;64740;34.694;33.088;2023-10-31T11:50:47;17.4;15;8.7
76043;PMS7003;64740;34.694;33.088;2023-10-31T11:55:29;17;13.4;7.9
76043;PMS7003;64740;34.694;33.088;2023-10-31T12:01:00;17.9;13.3;8.3
76043;PMS7003;64740;34.694;33.088;2023-10-31T12:05:29;15.4;13;7.6
76043;PMS7003;64740;34.694;33.088;2023-10-31T12:11:06;15;12.5;7.3
76043;PMS7003;64740;34.694;33.088;2023-10-31T12:15:57;14.6;11;6.6
76043;PMS7003;64740;34.694;33.088;2023-10-31T12:21:05;15;12.6;7.3
76043;PMS7003;64740;34.694;33.088;2023-10-31T12:25:50;14.5;12.4;7.8
76043;PMS7003;64740;34.694;33.088;2023-10-31T12:30:44;15.1;12.9;8
76043;PMS7003;64740;34.694;33.088;2023-10-31T12:35:45;16.9;14;8.6
76043;PMS7003;64740;34.694;33.088;2023-10-31T12:40:29;17;14.6;9.2
76043;PMS7003;64740;34.694;33.088;2023-10-31T12:45:35;18.1;14.8;9.7
76043;PMS7003;64740;34.694;33.088;2023-10-31T12:51:06;20.8;17.7;11.2
76043;PMS7003;64740;34.694;33.088;2023-10-31T12:55:30;17.4;15;8.9
76043;PMS7003;64740;34.694;33.088;2023-10-31T13:01:10;16.8;13.9;8.8
76043;PMS7003;64740;34.694;33.088;2023-10-31T13:05:47;16.1;13.7;9.1
76043;PMS7003;64740;34.694;33.088;2023-10-31T13:11:05;17.7;15;9.2
76043;PMS7003;64740;34.694;33.088;2023-10-31T13:16:07;18.4;14.5;9
76043;PMS7003;64740;34.694;33.088;2023-10-31T13:20:41;19.2;16.8;10
76043;PMS7003;64740;34.694;33.088;2023-10-31T13:25:35;19.2;15.2;9.4
76043;PMS7003;64740;34.694;33.088;2023-10-31T13:30:41;14.9;12.9;7.1
76043;PMS7003;64740;34.694;33.088;2023-10-31T13:35:35;17.5;15.3;9.4
76043;PMS7003;64740;34.694;33.088;2023-10-31T13:40:57;18.1;15.4;9.3
76043;PMS7003;64740;34.694;33.088;2023-10-31T13:45:45;19.4;16.1;9.8
76043;PMS7003;64740;34.694;33.088;2023-10-31T13:51:06;20;16.4;10
76043;PMS7003;64740;34.694;33.088;2023-10-31T13:55:31;18.9;16.3;9.5
76043;PMS7003;64740;34.694;33.088;2023-10-31T14:01:05;19.7;16.2;9.7
76043;PMS7003;64740;34.694;33.088;2023-10-31T14:06:05;19.7;15.1;9.3
76043;PMS7003;64740;34.694;33.088;2023-10-31T14:10:29;18.4;15.4;9.6
76043;PMS7003;64740;34.694;33.088;2023-10-31T14:15:41;19.5;16.5;10.6
76043;PMS7003;64740;34.694;33.088;2023-10-31T14:20:29;18.5;14.9;9.6
76043;PMS7003;64740;34.694;33.088;2023-10-31T14:25:35;18.9;16.7;10.2
76043;PMS7003;64740;34.694;33.088;2023-10-31T14:30:43;17;13.3;7.9
76043;PMS7003;64740;34.694;33.088;2023-10-31T14:35:47;18.7;16.3;9.9
76043;PMS7003;64740;34.694;33.088;2023-10-31T14:41:05;19;16.7;10.2
76043;PMS7003;64740;34.694;33.088;2023-10-31T14:45:56;21;17.9;11.3
76043;PMS7003;64740;34.694;33.088;2023-10-31T14:51:07;19.8;16;9.3
76043;PMS7003;64740;34.694;33.088;2023-10-31T14:56:06;20;17;10.4
76043;PMS7003;64740;34.694;33.088;2023-10-31T15:00:27;19.5;15.8;10.3
76043;PMS7003;64740;34.694;33.088;2023-10-31T15:05:29;20.4;16.6;10.1
76043;PMS7003;64740;34.694;33.088;2023-10-31T15:10:41;22.9;17.5;10.5
76043;PMS7003;64740;34.694;33.088;2023-10-31T15:15:35;19.8;17.5;10.7
76043;PMS7003;64740;34.694;33.088;2023-10-31T15:20:59;19;15.8;9.7
76043;PMS7003;64740;34.694;33.088;2023-10-31T15:25:45;19.3;16.8;10.2
76043;PMS7003;64740;34.694;33.088;2023-10-31T15:31:05;20;16.7;10.3
76043;PMS7003;64740;34.694;33.088;2023-10-31T15:35:55;23.1;18.9;11.6
76043;PMS7003;64740;34.694;33.088;2023-10-31T15:40:51;22.8;18.9;11.4
76043;PMS7003;64740;34.694;33.088;2023-10-31T15:46:03;22.2;18.1;11.2
76043;PMS7003;64740;34.694;33.088;2023-10-31T15:50:51;21.9;18;11.4
76043;PMS7003;64740;34.694;33.088;2023-10-31T15:55:27;23.8;19.3;12.2
76043;PMS7003;64740;34.694;33.088;2023-10-31T16:00:33;22.3;19.5;12
76043;PMS7003;64740;34.694;33.088;2023-10-31T16:05:53;25.5;20.6;13.2
76043;PMS7003;64740;34.694;33.088;2023-10-31T16:11:05;25.9;21.5;13.3
76043;PMS7003;64740;34.694;33.088;2023-10-31T16:15:43;26.7;21.4;13.3
76043;PMS7003;64740;34.694;33.088;2023-10-31T16:20:27;25.3;21.7;13.6
76043;PMS7003;64740;34.694;33.088;2023-10-31T16:25:55;26.1;22.1;13.3
76043;PMS7003;64740;34.694;33.088;2023-10-31T16:30:51;26.1;21.6;12.9
76043;PMS7003;64740;34.694;33.088;2023-10-31T16:36:04;27.3;22.1;13.1
76043;PMS7003;64740;34.694;33.088;2023-10-31T16:40:51;25.5;21.2;12.8
76043;PMS7003;64740;34.694;33.088;2023-10-31T16:45:33;27.4;22.5;13.2
76043;PMS7003;64740;34.694;33.088;2023-10-31T16:50:27;28.8;24.8;15.2
76043;PMS7003;64740;34.694;33.088;2023-10-31T16:55:45;25.8;21.6;13.2
76043;PMS7003;64740;34.694;33.088;2023-10-31T17:00:53;24.9;20.2;12.5
76043;PMS7003;64740;34.694;33.088;2023-10-31T17:05:45;26.7;20.6;12.8
76043;PMS7003;64740;34.694;33.088;2023-10-31T17:10:27;25.4;21.6;12.8
76043;PMS7003;64740;34.694;33.088;2023-10-31T17:15:55;27.2;21.2;12.6
76043;PMS7003;64740;34.694;33.088;2023-10-31T17:20:53;26.2;22.3;14.1
76043;PMS7003;64740;34.694;33.088;2023-10-31T17:26:04;25.9;22;13.3
76043;PMS7003;64740;34.694;33.088;2023-10-31T17:30:53;27.7;22.8;13.5
76043;PMS7003;64740;34.694;33.088;2023-10-31T17:35:33;27.8;23.4;14.9
76043;PMS7003;64740;34.694;33.088;2023-10-31T17:40:27;31.5;27.2;16.1
76043;PMS7003;64740;34.694;33.088;2023-10-31T17:45:45;33.9;27.7;17.4
76043;PMS7003;64740;34.694;33.088;2023-10-31T17:51:05;35;28.3;17.4
76043;PMS7003;64740;34.694;33.088;2023-10-31T17:55:41;32.5;27.9;17.8
76043;PMS7003;64740;34.694;33.088;2023-10-31T18:00:34;31.7;26.9;16.5
76043;PMS7003;64740;34.694;33.088;2023-10-31T18:05:55;31.1;25.5;16
76043;PMS7003;64740;34.694;33.088;2023-10-31T18:10:54;33.9;27.7;16.9
76043;PMS7003;64740;34.694;33.088;2023-10-31T18:16:06;37.5;31.6;19.6
76043;PMS7003;64740;34.694;33.088;2023-10-31T18:20:53;50.8;39.6;24.5
76043;PMS7003;64740;34.694;33.088;2023-10-31T18:25:35;45.1;35.3;22.5
76043;PMS7003;64740;34.694;33.088;2023-10-31T18:30:33;37.5;31.1;19.6
76043;PMS7003;64740;34.694;33.088;2023-10-31T18:35:47;34.5;28.2;17.6
76043;PMS7003;64740;34.694;33.088;2023-10-31T18:41:05;29.8;25.5;15.3
76043;PMS7003;64740;34.694;33.088;2023-10-31T18:45:45;32.6;27;16.7
76043;PMS7003;64740;34.694;33.088;2023-10-31T18:50:27;28.8;25.3;15.5
76043;PMS7003;64740;34.694;33.088;2023-10-31T18:55:48;30.4;25.5;15.7
76043;PMS7003;64740;34.694;33.088;2023-10-31T19:00:54;29.6;24.2;14.6
76043;PMS7003;64740;34.694;33.088;2023-10-31T19:06:06;30;25.1;14.7
76043;PMS7003;64740;34.694;33.088;2023-10-31T19:10:54;28.2;22.4;13.6
76043;PMS7003;64740;34.694;33.088;2023-10-31T19:15:33;27;21.9;13.2
76043;PMS7003;64740;34.694;33.088;2023-10-31T19:20:33;25.8;21.5;13.7
76043;PMS7003;64740;34.694;33.088;2023-10-31T19:25:54;23.5;19.7;12.6
76043;PMS7003;64740;34.694;33.088;2023-10-31T19:31:06;22.4;19.5;11.3
76043;PMS7003;64740;34.694;33.088;2023-10-31T19:35:44;20.5;17.3;10.8
76043;PMS7003;64740;34.694;33.088;2023-10-31T19:40:34;22.1;18.7;11.6
76043;PMS7003;64740;34.694;33.088;2023-10-31T19:45:48;20.7;17.6;10.4
76043;PMS7003;64740;34.694;33.088;2023-10-31T19:51:06;20.2;16.6;10
76043;PMS7003;64740;34.694;33.088;2023-10-31T19:56:06;19;16.4;10.5
76043;PMS7003;64740;34.694;33.088;2023-10-31T20:00:54;19.3;15.9;9.7
76043;PMS7003;64740;34.694;33.088;2023-10-31T20:05:30;18;15.3;9.8
76043;PMS7003;64740;34.694;33.088;2023-10-31T20:10:36;17.8;14.9;9.1
76043;PMS7003;64740;34.694;33.088;2023-10-31T20:15:46;19.6;16.3;10.1
76043;PMS7003;64740;34.694;33.088;2023-10-31T20:21:06;18.1;15.1;9
76043;PMS7003;64740;34.694;33.088;2023-10-31T20:26:00;18.8;15.7;9.9
76043;PMS7003;64740;34.694;33.088;2023-10-31T20:30:44;18.5;14.7;9.3
76043;PMS7003;64740;34.694;33.088;2023-10-31T20:36:00;17.4;13.5;8.9
76043;PMS7003;64740;34.694;33.088;2023-10-31T20:40:44;18.5;15.4;9.8
76043;PMS7003;64740;34.694;33.088;2023-10-31T20:46:09;17.8;15;8.9
76043;PMS7003;64740;34.694;33.088;2023-10-31T20:50:36;17;14;8.7
76043;PMS7003;64740;34.694;33.088;2023-10-31T20:55:34;16.8;14.1;9
76043;PMS7003;64740;34.694;33.088;2023-10-31T21:00:30;16.6;14.4;8.8
76043;PMS7003;64740;34.694;33.088;2023-10-31T21:05:36;17.5;14.7;9.2
76043;PMS7003;64740;34.694;33.088;2023-10-31T21:11:06;17.5;14.7;9.6
76043;PMS7003;64740;34.694;33.088;2023-10-31T21:15:38;16.6;13.9;8.9
76043;PMS7003;64740;34.694;33.088;2023-10-31T21:20:46;17;14.6;8.8
76043;PMS7003;64740;34.694;33.088;2023-10-31T21:25:50;15;12.4;6.9
76043;PMS7003;64740;34.694;33.088;2023-10-31T21:30:56;17.7;14.7;9.3
76043;PMS7003;64740;34.694;33.088;2023-10-31T21:36:06;18.4;14.7;8.9
76043;PMS7003;64740;34.694;33.088;2023-10-31T21:40:44;17.9;14.8;8.8
76043;PMS7003;64740;34.694;33.088;2023-10-31T21:45:30;17.8;14.5;8.3
76043;PMS7003;64740;34.694;33.088;2023-10-31T21:50:36;19.3;15.5;9.5
76043;PMS7003;64740;34.694;33.088;2023-10-31T21:55:36;19.3;15.8;9.5
76043;PMS7003;64740;34.694;33.088;2023-10-31T22:01:08;16.3;13.6;8.4
76043;PMS7003;64740;34.694;33.088;2023-10-31T22:05:58;16;13.7;8
76043;PMS7003;64740;34.694;33.088;2023-10-31T22:10:30;16.2;13.8;7.9
76043;PMS7003;64740;34.694;33.088;2023-10-31T22:15:58;17.4;15.2;9.4
76043;PMS7003;64740;34.694;33.088;2023-10-31T22:20:54;17.5;15.3;9.6
76043;PMS7003;64740;34.694;33.088;2023-10-31T22:26:04;18.4;15.2;9.1
76043;PMS7003;64740;34.694;33.088;2023-10-31T22:30:36;16.6;13;7.7
76043;PMS7003;64740;34.694;33.088;2023-10-31T22:35:30;16;13.9;8.7
76043;PMS7003;64740;34.694;33.088;2023-10-31T22:40:30;17.8;14.3;8.4
76043;PMS7003;64740;34.694;33.088;2023-10-31T22:45:48;19;15.1;9.5
76043;PMS7003;64740;34.694;33.088;2023-10-31T22:51:08;18.4;15.6;9.7
76043;PMS7003;64740;34.694;33.088;2023-10-31T22:55:58;18.5;15;9.3
76043;PMS7003;64740;34.694;33.088;2023-10-31T23:00:46;17.2;14.6;9
76043;PMS7003;64740;34.694;33.088;2023-10-31T23:06:00;17.6;14.6;9.3
76043;PMS7003;64740;34.694;33.088;2023-10-31T23:10:56;18.5;14.2;8.8
76043;PMS7003;64740;34.694;33.088;2023-10-31T23:16:08;17;14.6;9
76043;PMS7003;64740;34.694;33.088;2023-10-31T23:21:00;17.8;15;9.5
76043;PMS7003;64740;34.694;33.088;2023-10-31T23:25:46;17.9;15.3;9.2
76043;PMS7003;64740;34.694;33.088;2023-10-31T23:30:48;17.5;15.3;9.5
76043;PMS7003;64740;34.694;33.088;2023-10-31T23:35:30;17.3;13.4;8.2
76043;PMS7003;64740;34.694;33.088;2023-10-31T23:41:06;14.5;13;8.6
76043;PMS7003;64740;34.694;33.088;2023-10-31T23:45:50;15.7;13.8;8.7
76043;PMS7003;64740;34.694;33.088;2023-10-31T23:50:30;16;13.6;8.4
76043;PMS7003;64740;34.694;33.088;2023-10-31T23:55:46;15.9;13.3;8.2
